sensor_id;sensor_type;location;lat;lon;timestamp;P1;durP1;ratioP1;P2;durP2;ratioP2
2107;SDS011;1060;52.492;13.388;2022-12-07T00:02:39;13.98;;;11.45;;
2107;SDS011;1060;52.492;13.388;2022-12-07T00:09:37;17.27;;;13.35;;
2107;SDS011;1060;52.492;13.388;2022-12-07T00:12:45;20.00;;;13.52;;
2107;SDS011;1060;52.492;13.388;2022-12-07T00:23:15;12.55;;;11.35;;
2107;SDS011;1060;52.492;13.388;2022-12-07T00:33:19;19.88;;;17.08;;
2107;SDS011;1060;52.492;13.388;2022-12-07T00:36:15;14.27;;;11.05;;
2107;SDS011;1060;52.492;13.388;2022-12-07T00:39:31;13.43;;;11.57;;
2107;SDS011;1060;52.492;13.388;2022-12-07T00:49:50;12.80;;;11.15;;
2107;SDS011;1060;52.492;13.388;2022-12-07T00:56:22;12.57;;;11.15;;
2107;SDS011;1060;52.492;13.388;2022-12-07T00:59:13;13.52;;;10.40;;
2107;SDS011;1060;52.492;13.388;2022-12-07T01:09:29;11.98;;;9.20;;
2107;SDS011;1060;52.492;13.388;2022-12-07T01:16:14;11.63;;;9.50;;
2107;SDS011;1060;52.492;13.388;2022-12-07T01:30:03;9.35;;;8.30;;
2107;SDS011;1060;52.492;13.388;2022-12-07T01:39:08;8.63;;;7.22;;
2107;SDS011;1060;52.492;13.388;2022-12-07T01:41:58;10.05;;;7.95;;
2107;SDS011;1060;52.492;13.388;2022-12-07T01:48:08;10.25;;;8.85;;
2107;SDS011;1060;52.492;13.388;2022-12-07T01:51:08;10.20;;;8.80;;
2107;SDS011;1060;52.492;13.388;2022-12-07T01:56:45;9.43;;;8.43;;
2107;SDS011;1060;52.492;13.388;2022-12-07T02:03:00;7.93;;;7.13;;
2107;SDS011;1060;52.492;13.388;2022-12-07T02:08:35;7.63;;;7.00;;
2107;SDS011;1060;52.492;13.388;2022-12-07T02:11:34;8.82;;;8.02;;
2107;SDS011;1060;52.492;13.388;2022-12-07T02:14:41;9.43;;;7.40;;
2107;SDS011;1060;52.492;13.388;2022-12-07T02:17:43;8.82;;;7.20;;
2107;SDS011;1060;52.492;13.388;2022-12-07T02:28:34;8.73;;;7.80;;
2107;SDS011;1060;52.492;13.388;2022-12-07T02:31:08;8.63;;;7.60;;
2107;SDS011;1060;52.492;13.388;2022-12-07T02:33:47;10.27;;;8.55;;
2107;SDS011;1060;52.492;13.388;2022-12-07T02:36:20;9.15;;;6.78;;
2107;SDS011;1060;52.492;13.388;2022-12-07T02:44:00;10.18;;;7.63;;
2107;SDS011;1060;52.492;13.388;2022-12-07T02:46:41;8.65;;;7.50;;
2107;SDS011;1060;52.492;13.388;2022-12-07T02:49:08;9.30;;;8.38;;
2107;SDS011;1060;52.492;13.388;2022-12-07T02:51:41;8.80;;;7.90;;
2107;SDS011;1060;52.492;13.388;2022-12-07T02:54:14;8.93;;;7.55;;
2107;SDS011;1060;52.492;13.388;2022-12-07T03:04:33;10.65;;;8.27;;
2107;SDS011;1060;52.492;13.388;2022-12-07T03:07:05;11.15;;;9.77;;
2107;SDS011;1060;52.492;13.388;2022-12-07T03:15:05;9.57;;;8.68;;
2107;SDS011;1060;52.492;13.388;2022-12-07T03:17:33;9.68;;;8.70;;
2107;SDS011;1060;52.492;13.388;2022-12-07T03:20:02;12.27;;;10.00;;
2107;SDS011;1060;52.492;13.388;2022-12-07T03:22:30;11.07;;;8.25;;
2107;SDS011;1060;52.492;13.388;2022-12-07T03:25:01;10.05;;;8.43;;
2107;SDS011;1060;52.492;13.388;2022-12-07T03:30:05;8.55;;;7.75;;
2107;SDS011;1060;52.492;13.388;2022-12-07T03:35:19;13.70;;;11.13;;
2107;SDS011;1060;52.492;13.388;2022-12-07T03:43:02;11.20;;;9.55;;
2107;SDS011;1060;52.492;13.388;2022-12-07T03:45:42;10.13;;;9.07;;
2107;SDS011;1060;52.492;13.388;2022-12-07T03:48:33;13.55;;;10.20;;
2107;SDS011;1060;52.492;13.388;2022-12-07T03:51:14;10.18;;;8.82;;
2107;SDS011;1060;52.492;13.388;2022-12-07T03:56:45;12.32;;;8.80;;
2107;SDS011;1060;52.492;13.388;2022-12-07T03:59:15;10.65;;;9.55;;
2107;SDS011;1060;52.492;13.388;2022-12-07T04:01:44;11.32;;;10.10;;
2107;SDS011;1060;52.492;13.388;2022-12-07T04:04:11;12.50;;;9.18;;
2107;SDS011;1060;52.492;13.388;2022-12-07T04:06:37;15.82;;;10.43;;
2107;SDS011;1060;52.492;13.388;2022-12-07T04:09:16;12.52;;;10.45;;
2107;SDS011;1060;52.492;13.388;2022-12-07T04:11:50;11.27;;;10.07;;
2107;SDS011;1060;52.492;13.388;2022-12-07T04:14:19;12.35;;;9.40;;
2107;SDS011;1060;52.492;13.388;2022-12-07T04:16:50;15.88;;;10.82;;
2107;SDS011;1060;52.492;13.388;2022-12-07T04:19:18;13.93;;;10.82;;
2107;SDS011;1060;52.492;13.388;2022-12-07T04:21:55;14.55;;;11.00;;
2107;SDS011;1060;52.492;13.388;2022-12-07T04:24:21;16.30;;;10.73;;
2107;SDS011;1060;52.492;13.388;2022-12-07T04:26:56;17.05;;;12.77;;
2107;SDS011;1060;52.492;13.388;2022-12-07T04:29:26;18.70;;;12.85;;
2107;SDS011;1060;52.492;13.388;2022-12-07T04:31:58;15.20;;;10.63;;
2107;SDS011;1060;52.492;13.388;2022-12-07T04:34:27;15.32;;;13.45;;
2107;SDS011;1060;52.492;13.388;2022-12-07T04:36:56;16.10;;;13.77;;
2107;SDS011;1060;52.492;13.388;2022-12-07T04:39:26;18.88;;;14.02;;
2107;SDS011;1060;52.492;13.388;2022-12-07T04:41:53;17.10;;;13.57;;
2107;SDS011;1060;52.492;13.388;2022-12-07T04:44:38;19.30;;;16.00;;
2107;SDS011;1060;52.492;13.388;2022-12-07T04:47:11;24.33;;;15.07;;
2107;SDS011;1060;52.492;13.388;2022-12-07T04:49:38;23.40;;;15.80;;
2107;SDS011;1060;52.492;13.388;2022-12-07T04:52:04;20.52;;;15.23;;
2107;SDS011;1060;52.492;13.388;2022-12-07T04:54:31;22.83;;;17.80;;
2107;SDS011;1060;52.492;13.388;2022-12-07T04:57:08;20.95;;;15.07;;
2107;SDS011;1060;52.492;13.388;2022-12-07T04:59:36;23.52;;;16.13;;
2107;SDS011;1060;52.492;13.388;2022-12-07T05:02:05;21.13;;;16.00;;
2107;SDS011;1060;52.492;13.388;2022-12-07T05:04:39;29.02;;;17.13;;
2107;SDS011;1060;52.492;13.388;2022-12-07T05:07:08;20.95;;;15.80;;
2107;SDS011;1060;52.492;13.388;2022-12-07T05:09:35;21.45;;;16.48;;
2107;SDS011;1060;52.492;13.388;2022-12-07T05:12:04;22.48;;;18.08;;
2107;SDS011;1060;52.492;13.388;2022-12-07T05:14:39;25.20;;;18.00;;
2107;SDS011;1060;52.492;13.388;2022-12-07T05:17:05;24.00;;;17.58;;
2107;SDS011;1060;52.492;13.388;2022-12-07T05:19:41;21.35;;;16.42;;
2107;SDS011;1060;52.492;13.388;2022-12-07T05:22:10;20.98;;;18.77;;
2107;SDS011;1060;52.492;13.388;2022-12-07T05:24:39;25.80;;;18.75;;
2107;SDS011;1060;52.492;13.388;2022-12-07T05:27:11;23.88;;;16.85;;
2107;SDS011;1060;52.492;13.388;2022-12-07T05:29:40;23.60;;;16.35;;
2107;SDS011;1060;52.492;13.388;2022-12-07T05:32:25;26.05;;;17.10;;
2107;SDS011;1060;52.492;13.388;2022-12-07T05:34:54;28.00;;;19.95;;
2107;SDS011;1060;52.492;13.388;2022-12-07T05:37:34;32.97;;;20.92;;
2107;SDS011;1060;52.492;13.388;2022-12-07T05:43:31;26.15;;;21.58;;
2107;SDS011;1060;52.492;13.388;2022-12-07T05:46:11;25.98;;;20.50;;
2107;SDS011;1060;52.492;13.388;2022-12-07T05:48:47;25.90;;;20.27;;
2107;SDS011;1060;52.492;13.388;2022-12-07T05:51:59;24.67;;;18.70;;
2107;SDS011;1060;52.492;13.388;2022-12-07T05:54:15;28.33;;;21.33;;
2107;SDS011;1060;52.492;13.388;2022-12-07T05:56:41;30.23;;;24.50;;
2107;SDS011;1060;52.492;13.388;2022-12-07T06:00:03;29.42;;;20.98;;
2107;SDS011;1060;52.492;13.388;2022-12-07T06:05:38;31.52;;;24.30;;
2107;SDS011;1060;52.492;13.388;2022-12-07T06:08:17;37.75;;;24.98;;
2107;SDS011;1060;52.492;13.388;2022-12-07T06:10:57;25.95;;;20.35;;
2107;SDS011;1060;52.492;13.388;2022-12-07T06:13:53;26.27;;;20.10;;
2107;SDS011;1060;52.492;13.388;2022-12-07T06:16:19;29.88;;;22.50;;
2107;SDS011;1060;52.492;13.388;2022-12-07T06:18:45;33.55;;;21.08;;
2107;SDS011;1060;52.492;13.388;2022-12-07T06:21:28;35.28;;;21.83;;
2107;SDS011;1060;52.492;13.388;2022-12-07T06:23:55;31.02;;;22.02;;
2107;SDS011;1060;52.492;13.388;2022-12-07T06:26:27;29.45;;;23.83;;
2107;SDS011;1060;52.492;13.388;2022-12-07T06:28:57;36.28;;;24.73;;
2107;SDS011;1060;52.492;13.388;2022-12-07T06:31:32;31.08;;;21.13;;
2107;SDS011;1060;52.492;13.388;2022-12-07T06:34:03;29.45;;;20.00;;
2107;SDS011;1060;52.492;13.388;2022-12-07T06:36:31;31.33;;;21.90;;
2107;SDS011;1060;52.492;13.388;2022-12-07T06:39:01;27.52;;;20.63;;
2107;SDS011;1060;52.492;13.388;2022-12-07T06:41:38;27.60;;;20.85;;
2107;SDS011;1060;52.492;13.388;2022-12-07T06:44:05;28.23;;;18.55;;
2107;SDS011;1060;52.492;13.388;2022-12-07T06:46:31;28.75;;;18.67;;
2107;SDS011;1060;52.492;13.388;2022-12-07T06:48:58;30.50;;;21.35;;
2107;SDS011;1060;52.492;13.388;2022-12-07T06:51:26;28.48;;;22.85;;
2107;SDS011;1060;52.492;13.388;2022-12-07T06:53:53;32.88;;;22.50;;
2107;SDS011;1060;52.492;13.388;2022-12-07T06:56:19;42.58;;;23.40;;
2107;SDS011;1060;52.492;13.388;2022-12-07T06:58:49;35.55;;;23.55;;
2107;SDS011;1060;52.492;13.388;2022-12-07T07:01:18;30.20;;;23.10;;
2107;SDS011;1060;52.492;13.388;2022-12-07T07:03:53;31.38;;;21.67;;
2107;SDS011;1060;52.492;13.388;2022-12-07T07:06:20;32.05;;;23.85;;
2107;SDS011;1060;52.492;13.388;2022-12-07T07:08:46;32.08;;;24.48;;
2107;SDS011;1060;52.492;13.388;2022-12-07T07:11:13;41.15;;;25.70;;
2107;SDS011;1060;52.492;13.388;2022-12-07T07:13:49;33.67;;;27.75;;
2107;SDS011;1060;52.492;13.388;2022-12-07T07:16:18;35.72;;;25.23;;
2107;SDS011;1060;52.492;13.388;2022-12-07T07:18:45;39.00;;;25.10;;
2107;SDS011;1060;52.492;13.388;2022-12-07T07:21:12;33.92;;;23.85;;
2107;SDS011;1060;52.492;13.388;2022-12-07T07:23:48;27.50;;;23.60;;
2107;SDS011;1060;52.492;13.388;2022-12-07T07:26:14;33.22;;;24.80;;
2107;SDS011;1060;52.492;13.388;2022-12-07T07:28:46;40.80;;;24.27;;
2107;SDS011;1060;52.492;13.388;2022-12-07T07:31:12;29.65;;;22.83;;
2107;SDS011;1060;52.492;13.388;2022-12-07T07:33:39;34.65;;;23.83;;
2107;SDS011;1060;52.492;13.388;2022-12-07T07:36:05;26.80;;;21.83;;
2107;SDS011;1060;52.492;13.388;2022-12-07T07:42:00;31.48;;;18.45;;
2107;SDS011;1060;52.492;13.388;2022-12-07T07:44:27;23.67;;;19.77;;
2107;SDS011;1060;52.492;13.388;2022-12-07T07:46:53;25.63;;;18.48;;
2107;SDS011;1060;52.492;13.388;2022-12-07T07:49:23;22.88;;;17.08;;
2107;SDS011;1060;52.492;13.388;2022-12-07T07:51:52;23.73;;;17.50;;
2107;SDS011;1060;52.492;13.388;2022-12-07T07:54:27;24.15;;;20.20;;
2107;SDS011;1060;52.492;13.388;2022-12-07T07:56:53;20.92;;;17.77;;
2107;SDS011;1060;52.492;13.388;2022-12-07T07:59:20;25.80;;;17.70;;
2107;SDS011;1060;52.492;13.388;2022-12-07T08:01:49;18.77;;;16.40;;
2107;SDS011;1060;52.492;13.388;2022-12-07T08:04:32;27.30;;;14.80;;
2107;SDS011;1060;52.492;13.388;2022-12-07T08:07:08;19.52;;;15.25;;
2107;SDS011;1060;52.492;13.388;2022-12-07T08:09:38;16.20;;;14.48;;
2107;SDS011;1060;52.492;13.388;2022-12-07T08:12:07;18.63;;;13.07;;
2107;SDS011;1060;52.492;13.388;2022-12-07T08:14:38;15.52;;;12.43;;
2107;SDS011;1060;52.492;13.388;2022-12-07T08:17:07;17.92;;;12.45;;
2107;SDS011;1060;52.492;13.388;2022-12-07T08:19:33;16.73;;;14.75;;
2107;SDS011;1060;52.492;13.388;2022-12-07T08:22:02;13.63;;;11.15;;
2107;SDS011;1060;52.492;13.388;2022-12-07T08:24:34;15.13;;;12.38;;
2107;SDS011;1060;52.492;13.388;2022-12-07T08:32:27;11.35;;;9.00;;
2107;SDS011;1060;52.492;13.388;2022-12-07T08:34:59;9.60;;;6.97;;
2107;SDS011;1060;52.492;13.388;2022-12-07T08:37:35;14.77;;;7.38;;
2107;SDS011;1060;52.492;13.388;2022-12-07T08:40:11;8.20;;;6.30;;
2107;SDS011;1060;52.492;13.388;2022-12-07T08:43:26;9.40;;;5.95;;
2107;SDS011;1060;52.492;13.388;2022-12-07T08:46:08;8.23;;;5.60;;
2107;SDS011;1060;52.492;13.388;2022-12-07T08:48:36;7.97;;;7.18;;
2107;SDS011;1060;52.492;13.388;2022-12-07T08:51:05;3.30;;;3.00;;
2107;SDS011;1060;52.492;13.388;2022-12-07T08:53:34;5.05;;;4.22;;
2107;SDS011;1060;52.492;13.388;2022-12-07T08:56:01;3.25;;;2.95;;
2107;SDS011;1060;52.492;13.388;2022-12-07T08:58:28;3.05;;;2.78;;
2107;SDS011;1060;52.492;13.388;2022-12-07T09:01:02;4.13;;;3.80;;
2107;SDS011;1060;52.492;13.388;2022-12-07T09:03:34;4.20;;;3.33;;
2107;SDS011;1060;52.492;13.388;2022-12-07T09:06:00;3.97;;;3.60;;
2107;SDS011;1060;52.492;13.388;2022-12-07T09:08:31;2.90;;;2.70;;
2107;SDS011;1060;52.492;13.388;2022-12-07T09:11:01;3.45;;;3.15;;
2107;SDS011;1060;52.492;13.388;2022-12-07T09:13:27;2.67;;;2.47;;
2107;SDS011;1060;52.492;13.388;2022-12-07T09:15:55;3.08;;;2.88;;
2107;SDS011;1060;52.492;13.388;2022-12-07T09:18:24;3.60;;;3.25;;
2107;SDS011;1060;52.492;13.388;2022-12-07T09:20:50;3.20;;;3.00;;
2107;SDS011;1060;52.492;13.388;2022-12-07T09:23:17;3.10;;;2.80;;
2107;SDS011;1060;52.492;13.388;2022-12-07T09:25:46;2.75;;;2.38;;
2107;SDS011;1060;52.492;13.388;2022-12-07T09:31:02;6.25;;;4.35;;
2107;SDS011;1060;52.492;13.388;2022-12-07T09:33:34;3.95;;;3.65;;
2107;SDS011;1060;52.492;13.388;2022-12-07T09:36:15;3.65;;;3.35;;
2107;SDS011;1060;52.492;13.388;2022-12-07T09:38:45;3.65;;;3.45;;
2107;SDS011;1060;52.492;13.388;2022-12-07T09:41:14;3.72;;;3.30;;
2107;SDS011;1060;52.492;13.388;2022-12-07T09:44:06;4.82;;;3.55;;
2107;SDS011;1060;52.492;13.388;2022-12-07T09:47:05;4.68;;;4.28;;
2107;SDS011;1060;52.492;13.388;2022-12-07T09:49:43;3.60;;;3.10;;
2107;SDS011;1060;52.492;13.388;2022-12-07T09:52:35;3.90;;;3.60;;
2107;SDS011;1060;52.492;13.388;2022-12-07T09:55:16;3.08;;;2.83;;
2107;SDS011;1060;52.492;13.388;2022-12-07T09:57:54;4.45;;;3.35;;
2107;SDS011;1060;52.492;13.388;2022-12-07T10:00:24;3.15;;;2.90;;
2107;SDS011;1060;52.492;13.388;2022-12-07T10:03:27;2.40;;;2.20;;
2107;SDS011;1060;52.492;13.388;2022-12-07T10:06:13;3.55;;;3.05;;
2107;SDS011;1060;52.492;13.388;2022-12-07T10:08:42;4.30;;;2.53;;
2107;SDS011;1060;52.492;13.388;2022-12-07T10:28:12;10.60;;;8.25;;
2107;SDS011;1060;52.492;13.388;2022-12-07T10:31:15;6.28;;;5.68;;
2107;SDS011;1060;52.492;13.388;2022-12-07T10:34:02;4.55;;;3.80;;
2107;SDS011;1060;52.492;13.388;2022-12-07T10:40:01;4.65;;;3.95;;
2107;SDS011;1060;52.492;13.388;2022-12-07T10:43:15;3.30;;;3.00;;
2107;SDS011;1060;52.492;13.388;2022-12-07T10:46:29;4.38;;;3.50;;
2107;SDS011;1060;52.492;13.388;2022-12-07T10:50:05;5.95;;;3.95;;
2107;SDS011;1060;52.492;13.388;2022-12-07T10:55:25;5.95;;;5.22;;
2107;SDS011;1060;52.492;13.388;2022-12-07T10:58:00;7.22;;;4.20;;
2107;SDS011;1060;52.492;13.388;2022-12-07T11:07:46;6.63;;;5.57;;
2107;SDS011;1060;52.492;13.388;2022-12-07T11:36:09;10.15;;;5.68;;
2107;SDS011;1060;52.492;13.388;2022-12-07T11:42:37;6.20;;;5.60;;
2107;SDS011;1060;52.492;13.388;2022-12-07T11:45:37;5.63;;;5.00;;
2107;SDS011;1060;52.492;13.388;2022-12-07T11:55:17;7.80;;;6.97;;
2107;SDS011;1060;52.492;13.388;2022-12-07T12:14:59;4.90;;;4.27;;
2107;SDS011;1060;52.492;13.388;2022-12-07T12:24:19;6.47;;;4.53;;
2107;SDS011;1060;52.492;13.388;2022-12-07T12:27:50;8.77;;;5.80;;
2107;SDS011;1060;52.492;13.388;2022-12-07T12:50:55;6.22;;;3.67;;
2107;SDS011;1060;52.492;13.388;2022-12-07T13:11:46;7.17;;;5.87;;
2107;SDS011;1060;52.492;13.388;2022-12-07T13:18:49;6.25;;;3.90;;
2107;SDS011;1060;52.492;13.388;2022-12-07T15:37:19;4.65;;;3.20;;
2107;SDS011;1060;52.492;13.388;2022-12-07T16:04:59;4.75;;;3.40;;
2107;SDS011;1060;52.492;13.388;2022-12-07T16:07:28;6.95;;;3.83;;
2107;SDS011;1060;52.492;13.388;2022-12-07T16:09:57;7.85;;;3.60;;
2107;SDS011;1060;52.492;13.388;2022-12-07T16:12:43;5.97;;;5.22;;
2107;SDS011;1060;52.492;13.388;2022-12-07T16:15:23;6.38;;;3.30;;
2107;SDS011;1060;52.492;13.388;2022-12-07T16:18:06;7.10;;;3.90;;
2107;SDS011;1060;52.492;13.388;2022-12-07T18:03:27;8.18;;;5.15;;
2107;SDS011;1060;52.492;13.388;2022-12-07T18:06:05;6.30;;;5.32;;
2107;SDS011;1060;52.492;13.388;2022-12-07T18:08:53;10.10;;;5.07;;
2107;SDS011;1060;52.492;13.388;2022-12-07T18:11:59;7.32;;;6.60;;
2107;SDS011;1060;52.492;13.388;2022-12-07T18:14:47;5.25;;;4.05;;
2107;SDS011;1060;52.492;13.388;2022-12-07T18:17:33;5.68;;;5.03;;
2107;SDS011;1060;52.492;13.388;2022-12-07T18:20:36;4.95;;;3.88;;
2107;SDS011;1060;52.492;13.388;2022-12-07T18:23:26;6.43;;;5.55;;
2107;SDS011;1060;52.492;13.388;2022-12-07T18:26:15;3.92;;;3.63;;
2107;SDS011;1060;52.492;13.388;2022-12-07T18:35:35;5.03;;;4.40;;
2107;SDS011;1060;52.492;13.388;2022-12-07T18:38:14;8.05;;;7.15;;
2107;SDS011;1060;52.492;13.388;2022-12-07T18:40:59;8.52;;;5.18;;
2107;SDS011;1060;52.492;13.388;2022-12-07T18:43:34;8.27;;;6.47;;
2107;SDS011;1060;52.492;13.388;2022-12-07T18:46:20;6.65;;;4.60;;
2107;SDS011;1060;52.492;13.388;2022-12-07T18:48:56;7.85;;;5.97;;
2107;SDS011;1060;52.492;13.388;2022-12-07T18:51:27;7.65;;;6.20;;
2107;SDS011;1060;52.492;13.388;2022-12-07T18:53:54;11.02;;;6.80;;
2107;SDS011;1060;52.492;13.388;2022-12-07T18:56:26;6.65;;;5.55;;
2107;SDS011;1060;52.492;13.388;2022-12-07T18:58:56;11.05;;;7.57;;
2107;SDS011;1060;52.492;13.388;2022-12-07T19:01:42;11.65;;;5.88;;
2107;SDS011;1060;52.492;13.388;2022-12-07T19:04:20;6.80;;;6.30;;
2107;SDS011;1060;52.492;13.388;2022-12-07T19:06:47;14.00;;;7.75;;
2107;SDS011;1060;52.492;13.388;2022-12-07T19:09:14;11.95;;;6.43;;
2107;SDS011;1060;52.492;13.388;2022-12-07T19:11:53;7.18;;;5.07;;
2107;SDS011;1060;52.492;13.388;2022-12-07T19:14:30;9.02;;;6.30;;
2107;SDS011;1060;52.492;13.388;2022-12-07T19:17:01;11.10;;;6.88;;
2107;SDS011;1060;52.492;13.388;2022-12-07T19:19:31;9.98;;;7.72;;
2107;SDS011;1060;52.492;13.388;2022-12-07T19:21:58;13.45;;;9.50;;
2107;SDS011;1060;52.492;13.388;2022-12-07T19:24:30;14.43;;;8.60;;
2107;SDS011;1060;52.492;13.388;2022-12-07T19:27:32;9.00;;;7.50;;
2107;SDS011;1060;52.492;13.388;2022-12-07T19:30:02;10.43;;;7.65;;
2107;SDS011;1060;52.492;13.388;2022-12-07T19:32:31;16.35;;;8.00;;
2107;SDS011;1060;52.492;13.388;2022-12-07T19:35:05;7.18;;;6.47;;
2107;SDS011;1060;52.492;13.388;2022-12-07T19:37:32;10.77;;;6.40;;
2107;SDS011;1060;52.492;13.388;2022-12-07T19:40:22;10.35;;;7.68;;
2107;SDS011;1060;52.492;13.388;2022-12-07T19:49:44;14.52;;;6.15;;
2107;SDS011;1060;52.492;13.388;2022-12-07T19:52:33;9.93;;;8.45;;
2107;SDS011;1060;52.492;13.388;2022-12-07T19:55:54;14.15;;;6.95;;
2107;SDS011;1060;52.492;13.388;2022-12-07T19:59:14;7.82;;;6.20;;
2107;SDS011;1060;52.492;13.388;2022-12-07T20:08:36;15.00;;;7.95;;
2107;SDS011;1060;52.492;13.388;2022-12-07T20:11:50;12.25;;;8.32;;
2107;SDS011;1060;52.492;13.388;2022-12-07T20:29:36;10.30;;;8.98;;
2107;SDS011;1060;52.492;13.388;2022-12-07T20:32:02;13.40;;;9.82;;
2107;SDS011;1060;52.492;13.388;2022-12-07T20:34:32;10.80;;;7.75;;
2107;SDS011;1060;52.492;13.388;2022-12-07T20:37:04;16.73;;;8.57;;
2107;SDS011;1060;52.492;13.388;2022-12-07T20:39:33;10.68;;;7.80;;
2107;SDS011;1060;52.492;13.388;2022-12-07T20:42:02;11.55;;;7.05;;
2107;SDS011;1060;52.492;13.388;2022-12-07T20:44:52;12.13;;;6.90;;
2107;SDS011;1060;52.492;13.388;2022-12-07T20:47:21;14.25;;;7.72;;
2107;SDS011;1060;52.492;13.388;2022-12-07T20:49:48;9.63;;;8.02;;
2107;SDS011;1060;52.492;13.388;2022-12-07T20:52:17;9.95;;;7.65;;
2107;SDS011;1060;52.492;13.388;2022-12-07T21:01:10;8.95;;;7.07;;
2107;SDS011;1060;52.492;13.388;2022-12-07T21:03:58;8.52;;;6.40;;
2107;SDS011;1060;52.492;13.388;2022-12-07T21:06:47;9.68;;;8.15;;
2107;SDS011;1060;52.492;13.388;2022-12-07T21:09:51;14.60;;;7.53;;
2107;SDS011;1060;52.492;13.388;2022-12-07T21:12:18;14.35;;;8.73;;
2107;SDS011;1060;52.492;13.388;2022-12-07T21:14:50;11.85;;;6.60;;
2107;SDS011;1060;52.492;13.388;2022-12-07T21:17:16;9.98;;;6.40;;
2107;SDS011;1060;52.492;13.388;2022-12-07T21:19:48;11.63;;;9.15;;
2107;SDS011;1060;52.492;13.388;2022-12-07T21:22:15;11.45;;;6.93;;
2107;SDS011;1060;52.492;13.388;2022-12-07T21:24:41;11.35;;;8.25;;
2107;SDS011;1060;52.492;13.388;2022-12-07T21:27:08;13.80;;;7.78;;
2107;SDS011;1060;52.492;13.388;2022-12-07T21:29:37;10.52;;;9.52;;
2107;SDS011;1060;52.492;13.388;2022-12-07T21:32:04;11.70;;;7.65;;
2107;SDS011;1060;52.492;13.388;2022-12-07T21:34:33;11.20;;;10.10;;
2107;SDS011;1060;52.492;13.388;2022-12-07T21:37:03;15.55;;;12.32;;
2107;SDS011;1060;52.492;13.388;2022-12-07T21:39:34;7.28;;;6.30;;
2107;SDS011;1060;52.492;13.388;2022-12-07T21:42:10;9.93;;;8.93;;
2107;SDS011;1060;52.492;13.388;2022-12-07T21:44:39;10.90;;;8.98;;
2107;SDS011;1060;52.492;13.388;2022-12-07T21:47:05;11.63;;;8.13;;
2107;SDS011;1060;52.492;13.388;2022-12-07T21:54:57;9.68;;;7.22;;
2107;SDS011;1060;52.492;13.388;2022-12-07T21:57:57;7.53;;;6.68;;
2107;SDS011;1060;52.492;13.388;2022-12-07T22:01:29;13.15;;;9.38;;
2107;SDS011;1060;52.492;13.388;2022-12-07T22:09:52;10.48;;;8.27;;
2107;SDS011;1060;52.492;13.388;2022-12-07T22:12:27;11.23;;;8.45;;
2107;SDS011;1060;52.492;13.388;2022-12-07T22:15:49;13.43;;;9.52;;
2107;SDS011;1060;52.492;13.388;2022-12-07T22:21:25;10.32;;;8.40;;
2107;SDS011;1060;52.492;13.388;2022-12-07T22:24:18;13.32;;;10.05;;
2107;SDS011;1060;52.492;13.388;2022-12-07T22:26:45;15.40;;;11.20;;
2107;SDS011;1060;52.492;13.388;2022-12-07T22:29:44;10.45;;;8.25;;
2107;SDS011;1060;52.492;13.388;2022-12-07T22:32:38;13.23;;;11.93;;
2107;SDS011;1060;52.492;13.388;2022-12-07T22:35:17;12.75;;;8.98;;
2107;SDS011;1060;52.492;13.388;2022-12-07T22:37:44;14.45;;;8.55;;
2107;SDS011;1060;52.492;13.388;2022-12-07T22:40:10;11.07;;;9.57;;
2107;SDS011;1060;52.492;13.388;2022-12-07T22:42:36;11.65;;;8.00;;
2107;SDS011;1060;52.492;13.388;2022-12-07T22:45:03;12.63;;;8.38;;
2107;SDS011;1060;52.492;13.388;2022-12-07T22:47:29;10.32;;;9.23;;
2107;SDS011;1060;52.492;13.388;2022-12-07T22:49:55;12.73;;;7.80;;
2107;SDS011;1060;52.492;13.388;2022-12-07T22:53:03;10.80;;;8.05;;
2107;SDS011;1060;52.492;13.388;2022-12-07T22:55:14;9.85;;;8.85;;
2107;SDS011;1060;52.492;13.388;2022-12-07T22:57:40;14.57;;;8.35;;
2107;SDS011;1060;52.492;13.388;2022-12-07T23:00:06;8.85;;;7.95;;
2107;SDS011;1060;52.492;13.388;2022-12-07T23:02:33;10.07;;;8.95;;
2107;SDS011;1060;52.492;13.388;2022-12-07T23:04:59;13.07;;;9.15;;
2107;SDS011;1060;52.492;13.388;2022-12-07T23:07:26;17.35;;;10.00;;
2107;SDS011;1060;52.492;13.388;2022-12-07T23:09:52;12.05;;;8.13;;
2107;SDS011;1060;52.492;13.388;2022-12-07T23:12:19;12.25;;;8.85;;
2107;SDS011;1060;52.492;13.388;2022-12-07T23:15:04;19.92;;;10.38;;
2107;SDS011;1060;52.492;13.388;2022-12-07T23:17:30;18.13;;;14.75;;
2107;SDS011;1060;52.492;13.388;2022-12-07T23:19:56;11.85;;;10.45;;
2107;SDS011;1060;52.492;13.388;2022-12-07T23:22:23;11.95;;;8.35;;
2107;SDS011;1060;52.492;13.388;2022-12-07T23:24:49;15.02;;;9.18;;
2107;SDS011;1060;52.492;13.388;2022-12-07T23:27:16;18.27;;;8.20;;
2107;SDS011;1060;52.492;13.388;2022-12-07T23:29:42;16.20;;;11.60;;
2107;SDS011;1060;52.492;13.388;2022-12-07T23:32:08;12.95;;;10.35;;
2107;SDS011;1060;52.492;13.388;2022-12-07T23:34:34;22.50;;;14.55;;
2107;SDS011;1060;52.492;13.388;2022-12-07T23:37:04;15.35;;;9.80;;
2107;SDS011;1060;52.492;13.388;2022-12-07T23:39:30;15.13;;;10.35;;
2107;SDS011;1060;52.492;13.388;2022-12-07T23:41:56;14.88;;;11.00;;
2107;SDS011;1060;52.492;13.388;2022-12-07T23:44:22;16.30;;;9.57;;
2107;SDS011;1060;52.492;13.388;2022-12-07T23:46:49;13.85;;;8.75;;
2107;SDS011;1060;52.492;13.388;2022-12-07T23:49:17;11.57;;;7.45;;
2107;SDS011;1060;52.492;13.388;2022-12-07T23:51:43;10.93;;;8.18;;
2107;SDS011;1060;52.492;13.388;2022-12-07T23:54:10;9.98;;;8.18;;
2107;SDS011;1060;52.492;13.388;2022-12-07T23:56:36;13.10;;;8.75;;
2107;SDS011;1060;52.492;13.388;2022-12-07T23:59:03;10.38;;;9.20;;
